createdAt,value
2023-08-25T00:01:35.613Z,10.57
2023-08-25T00:04:02.505Z,14.00
2023-08-25T00:06:29.167Z,10.82
2023-08-25T00:08:55.713Z,10.65
2023-08-25T00:11:22.411Z,9.45
2023-08-25T00:13:49.070Z,11.38
2023-08-25T00:16:15.775Z,10.55
2023-08-25T00:18:42.498Z,9.63
2023-08-25T00:21:09.077Z,11.57
2023-08-25T00:26:02.866Z,9.80
2023-08-25T00:28:29.441Z,10.93
2023-08-25T00:30:56.390Z,11.45
2023-08-25T00:33:23.221Z,13.00
2023-08-25T00:35:49.849Z,9.85
2023-08-25T00:38:16.486Z,14.70
2023-08-25T00:40:43.209Z,10.27
2023-08-25T00:43:10.386Z,15.10
2023-08-25T00:45:42.587Z,15.52
2023-08-25T00:48:12.052Z,11.15
2023-08-25T00:50:40.013Z,9.82
2023-08-25T00:53:07.329Z,11.88
2023-08-25T00:55:36.266Z,12.93
2023-08-25T00:58:06.842Z,11.32
2023-08-25T01:00:33.574Z,12.00
2023-08-25T01:03:01.895Z,10.70
2023-08-25T01:05:28.656Z,16.08
2023-08-25T01:07:58.527Z,10.65
2023-08-25T01:10:51.352Z,9.88
2023-08-25T01:13:25.164Z,11.10
2023-08-25T01:15:54.994Z,9.38
2023-08-25T01:18:28.768Z,11.27
2023-08-25T01:20:56.721Z,13.13
2023-08-25T01:23:35.060Z,10.88
2023-08-25T01:26:03.658Z,11.63
2023-08-25T01:28:30.348Z,12.98
2023-08-25T01:30:58.387Z,9.00
2023-08-25T01:33:25.209Z,9.38
2023-08-25T01:36:11.541Z,9.52
2023-08-25T01:39:01.922Z,11.88
2023-08-25T01:41:44.283Z,10.55
2023-08-25T01:44:14.453Z,9.75
2023-08-25T01:46:44.722Z,12.48
2023-08-25T01:49:14.671Z,11.38
2023-08-25T01:51:41.743Z,10.77
2023-08-25T01:54:08.475Z,10.18
2023-08-25T01:56:35.074Z,11.10
2023-08-25T01:59:01.749Z,10.77
2023-08-25T02:01:29.773Z,8.90
2023-08-25T02:03:56.465Z,9.77
2023-08-25T02:06:23.039Z,10.10
2023-08-25T02:08:49.619Z,9.98
2023-08-25T02:11:16.399Z,10.55
2023-08-25T02:13:42.979Z,11.75
2023-08-25T02:16:09.672Z,10.55
2023-08-25T02:18:36.345Z,12.65
2023-08-25T02:21:03.413Z,9.98
2023-08-25T02:23:30.135Z,9.68
2023-08-25T02:25:57.232Z,14.68
2023-08-25T02:28:23.828Z,9.60
2023-08-25T02:30:50.472Z,9.57
2023-08-25T02:33:17.029Z,10.32
2023-08-25T02:35:43.822Z,9.35
2023-08-25T02:38:11.619Z,9.50
2023-08-25T02:40:41.643Z,9.88
2023-08-25T02:43:08.900Z,11.10
2023-08-25T02:45:36.877Z,10.52
2023-08-25T02:48:04.298Z,13.43
2023-08-25T02:50:31.580Z,10.70
2023-08-25T02:52:58.313Z,11.30
2023-08-25T02:55:25.294Z,12.70
2023-08-25T02:57:52.930Z,9.55
2023-08-25T03:00:24.982Z,10.00
2023-08-25T03:02:52.926Z,11.93
2023-08-25T03:05:20.938Z,12.52
2023-08-25T03:07:47.574Z,11.70
2023-08-25T03:10:14.233Z,13.40
2023-08-25T03:12:41.177Z,13.57
2023-08-25T03:15:08.730Z,16.05
2023-08-25T03:17:35.937Z,24.80
2023-08-25T03:20:04.087Z,14.52
2023-08-25T03:22:31.146Z,11.98
2023-08-25T03:24:57.936Z,10.32
2023-08-25T03:27:24.560Z,9.35
2023-08-25T03:29:51.183Z,14.30
2023-08-25T03:32:17.767Z,10.30
2023-08-25T03:34:44.312Z,9.30
2023-08-25T03:37:12.833Z,9.60
2023-08-25T03:39:39.763Z,11.07
2023-08-25T03:42:06.857Z,10.63
2023-08-25T03:44:33.586Z,11.25
2023-08-25T03:47:00.274Z,11.25
2023-08-25T03:49:29.535Z,13.40
2023-08-25T03:51:57.457Z,10.48
2023-08-25T03:54:24.348Z,11.23
2023-08-25T03:56:50.975Z,10.35
2023-08-25T03:59:17.570Z,10.23
2023-08-25T04:01:44.283Z,10.38
2023-08-25T04:04:10.840Z,10.20
2023-08-25T04:06:37.384Z,11.70
2023-08-25T04:09:03.993Z,10.00
2023-08-25T04:11:30.554Z,11.38
2023-08-25T04:13:57.174Z,11.18
2023-08-25T04:16:23.918Z,11.20
2023-08-25T04:18:50.545Z,12.82
2023-08-25T04:21:17.228Z,10.18
2023-08-25T04:23:43.805Z,10.48
2023-08-25T04:26:10.413Z,9.38
2023-08-25T04:28:36.975Z,9.05
2023-08-25T04:31:03.838Z,11.65
2023-08-25T04:33:30.707Z,8.95
2023-08-25T04:35:57.411Z,9.40
2023-08-25T04:38:24.222Z,8.73
2023-08-25T04:40:50.857Z,12.07
2023-08-25T04:43:17.687Z,9.02
2023-08-25T04:45:44.338Z,9.30
2023-08-25T04:48:11.049Z,8.80
2023-08-25T04:50:37.744Z,9.25
2023-08-25T04:53:04.701Z,9.10
2023-08-25T04:55:31.400Z,8.85
2023-08-25T04:57:58.107Z,10.57
2023-08-25T05:00:24.808Z,11.57
2023-08-25T05:02:51.541Z,10.50
2023-08-25T05:05:18.824Z,10.70
2023-08-25T05:07:46.556Z,9.25
2023-08-25T05:10:13.549Z,10.00
2023-08-25T05:12:41.305Z,8.57
2023-08-25T05:15:08.928Z,9.07
2023-08-25T05:17:35.548Z,8.88
2023-08-25T05:20:02.215Z,8.60
2023-08-25T05:22:29.060Z,10.68
2023-08-25T05:24:55.794Z,9.50
2023-08-25T05:27:22.455Z,9.60
2023-08-25T05:29:50.640Z,9.18
2023-08-25T05:32:17.212Z,9.27
2023-08-25T05:34:43.828Z,9.73
2023-08-25T05:37:10.618Z,11.45
2023-08-25T05:39:37.400Z,9.23
2023-08-25T05:42:04.210Z,10.20
2023-08-25T05:44:30.896Z,9.45
2023-08-25T05:46:58.446Z,7.68
2023-08-25T05:49:25.101Z,9.57
2023-08-25T05:51:52.411Z,8.43
2023-08-25T05:54:19.338Z,8.38
2023-08-25T05:56:46.070Z,13.15
2023-08-25T05:59:12.781Z,11.20
2023-08-25T06:01:39.613Z,8.13
2023-08-25T06:04:06.450Z,13.05
2023-08-25T06:06:33.433Z,12.88
2023-08-25T06:09:00.390Z,10.57
2023-08-25T06:11:27.185Z,18.67
2023-08-25T06:13:53.789Z,17.83
2023-08-25T06:16:20.546Z,20.85
2023-08-25T06:18:47.240Z,19.73
2023-08-25T06:21:13.879Z,17.63
2023-08-25T06:23:41.009Z,31.55
2023-08-25T06:26:07.730Z,16.38
2023-08-25T06:28:34.884Z,13.07
2023-08-25T06:31:01.881Z,14.80
2023-08-25T06:33:31.212Z,11.05
2023-08-25T06:35:58.938Z,15.27
2023-08-25T06:38:25.696Z,15.00
2023-08-25T06:40:53.573Z,13.32
2023-08-25T06:43:20.261Z,15.82
2023-08-25T06:45:47.707Z,13.75
2023-08-25T06:48:14.753Z,17.00
2023-08-25T06:50:41.970Z,55.15
2023-08-25T06:53:08.961Z,17.67
2023-08-25T06:55:36.320Z,19.52
2023-08-25T06:58:04.187Z,14.93
2023-08-25T07:00:31.389Z,15.55
2023-08-25T07:02:58.134Z,16.33
2023-08-25T07:05:25.435Z,19.23
2023-08-25T07:07:55.178Z,25.38
2023-08-25T07:10:22.290Z,19.63
2023-08-25T07:12:49.614Z,17.67
2023-08-25T07:15:16.188Z,14.40
2023-08-25T07:17:43.184Z,14.63
2023-08-25T07:20:10.700Z,12.25
2023-08-25T07:22:37.755Z,16.75
2023-08-25T07:25:04.720Z,14.77
2023-08-25T07:27:31.277Z,14.30
2023-08-25T07:29:59.116Z,12.60
2023-08-25T07:32:28.185Z,12.45
2023-08-25T07:34:56.656Z,12.02
2023-08-25T07:37:23.612Z,12.77
2023-08-25T07:39:52.314Z,13.05
2023-08-25T07:42:19.002Z,12.27
2023-08-25T07:44:47.357Z,10.50
2023-08-25T07:47:16.713Z,15.57
2023-08-25T07:49:44.305Z,12.27
2023-08-25T07:52:11.354Z,12.82
2023-08-25T07:54:39.229Z,13.07
2023-08-25T07:57:06.384Z,11.70
2023-08-25T07:59:33.415Z,16.17
2023-08-25T08:02:00.271Z,19.65
2023-08-25T08:04:27.157Z,13.07
2023-08-25T08:06:53.953Z,10.70
2023-08-25T08:09:20.602Z,11.32
2023-08-25T08:11:47.462Z,15.68
2023-08-25T08:14:14.043Z,17.95
2023-08-25T08:16:40.662Z,10.68
2023-08-25T08:19:07.385Z,10.80
2023-08-25T08:21:34.367Z,11.10
2023-08-25T08:24:01.999Z,10.85
2023-08-25T08:26:28.918Z,13.15
2023-08-25T08:28:55.558Z,11.23
2023-08-25T08:31:30.513Z,11.25
2023-08-25T08:33:57.266Z,11.38
2023-08-25T08:36:24.710Z,12.43
2023-08-25T08:38:51.294Z,33.50
2023-08-25T08:41:18.827Z,18.77
2023-08-25T08:43:47.217Z,19.73
2023-08-25T08:46:18.688Z,12.55
2023-08-25T08:48:46.213Z,14.85
2023-08-25T08:51:16.121Z,11.15
2023-08-25T08:53:43.003Z,10.95
2023-08-25T08:56:10.491Z,10.52
2023-08-25T08:58:37.060Z,9.00
2023-08-25T09:01:04.940Z,8.05
2023-08-25T09:03:35.666Z,7.75
2023-08-25T09:06:04.447Z,7.65
2023-08-25T09:08:36.839Z,7.78
2023-08-25T09:11:05.329Z,7.50
2023-08-25T09:13:36.067Z,6.93
2023-08-25T09:16:13.508Z,6.70
2023-08-25T09:18:41.023Z,7.63
2023-08-25T09:21:21.283Z,8.52
2023-08-25T09:23:55.850Z,8.30
2023-08-25T09:26:23.420Z,8.50
2023-08-25T09:28:55.715Z,8.57
2023-08-25T09:31:29.820Z,7.43
2023-08-25T09:34:30.075Z,7.55
2023-08-25T09:37:09.964Z,6.40
2023-08-25T09:39:45.986Z,7.35
2023-08-25T09:42:51.079Z,7.35
2023-08-25T09:45:17.762Z,6.75
2023-08-25T09:47:44.509Z,8.50
2023-08-25T09:50:17.059Z,6.20
2023-08-25T09:52:48.236Z,6.85
2023-08-25T09:55:16.006Z,6.47
2023-08-25T09:57:47.126Z,6.00
2023-08-25T10:00:14.514Z,6.35
2023-08-25T10:02:41.303Z,6.15
2023-08-25T10:05:10.662Z,6.53
2023-08-25T10:07:37.380Z,6.78
2023-08-25T10:10:04.472Z,7.57
2023-08-25T10:12:33.071Z,8.10
2023-08-25T10:15:00.877Z,8.45
2023-08-25T10:17:29.585Z,8.98
2023-08-25T10:20:02.288Z,8.75
2023-08-25T10:22:30.878Z,8.82
2023-08-25T10:25:02.672Z,8.90
2023-08-25T10:27:29.820Z,7.85
2023-08-25T10:29:57.748Z,9.65
2023-08-25T10:32:24.417Z,9.60
2023-08-25T10:34:54.561Z,9.55
2023-08-25T10:37:25.714Z,9.88
2023-08-25T10:39:57.135Z,9.95
2023-08-25T10:42:27.735Z,9.75
2023-08-25T10:44:56.284Z,8.68
2023-08-25T10:47:28.891Z,9.38
2023-08-25T10:49:57.012Z,9.80
2023-08-25T10:52:24.176Z,11.10
2023-08-25T10:54:54.789Z,10.43
2023-08-25T10:57:22.273Z,10.20
2023-08-25T10:59:51.917Z,8.80
2023-08-25T11:02:38.457Z,9.50
2023-08-25T11:05:33.292Z,9.32
2023-08-25T11:08:27.133Z,13.20
2023-08-25T11:11:12.391Z,11.70
2023-08-25T11:13:43.718Z,14.93
2023-08-25T11:16:12.294Z,13.20
2023-08-25T11:18:45.877Z,13.65
2023-08-25T11:21:13.038Z,16.38
2023-08-25T11:23:45.030Z,16.60
2023-08-25T11:26:17.540Z,14.50
2023-08-25T11:28:46.915Z,15.53
2023-08-25T11:31:14.116Z,21.30
2023-08-25T11:33:40.911Z,17.48
2023-08-25T11:36:07.696Z,16.25
2023-08-25T11:38:34.506Z,17.02
2023-08-25T11:41:01.146Z,16.63
2023-08-25T11:43:29.703Z,17.05
2023-08-25T11:45:56.693Z,16.33
2023-08-25T11:48:23.693Z,23.10
2023-08-25T11:50:50.402Z,17.83
2023-08-25T11:53:17.574Z,19.02
2023-08-25T11:55:59.240Z,19.45
2023-08-25T11:58:33.030Z,18.90
2023-08-25T12:01:07.866Z,18.98
2023-08-25T12:03:35.537Z,19.70
2023-08-25T12:06:09.511Z,21.60
2023-08-25T12:08:37.564Z,24.45
2023-08-25T12:11:06.643Z,20.13
2023-08-25T12:13:39.089Z,18.40
2023-08-25T12:16:05.910Z,18.67
2023-08-25T12:18:35.074Z,20.52
2023-08-25T12:21:05.013Z,20.90
2023-08-25T12:23:39.776Z,17.42
2023-08-25T12:26:09.109Z,19.80
2023-08-25T12:28:36.131Z,20.20
2023-08-25T12:31:03.355Z,18.67
2023-08-25T12:33:30.214Z,19.55
2023-08-25T12:35:59.127Z,18.10
2023-08-25T12:38:26.249Z,20.98
2023-08-25T12:40:52.996Z,20.38
2023-08-25T12:43:19.656Z,19.80
2023-08-25T12:45:48.860Z,19.83
2023-08-25T12:48:16.059Z,19.38
2023-08-25T12:50:42.646Z,18.50
2023-08-25T12:53:09.268Z,21.45
2023-08-25T12:55:35.834Z,20.33
2023-08-25T12:58:02.433Z,22.17
2023-08-25T13:00:29.615Z,22.08
2023-08-25T13:02:56.798Z,22.35
2023-08-25T13:05:24.596Z,22.42
2023-08-25T13:07:51.947Z,27.45
2023-08-25T13:10:18.947Z,36.83
2023-08-25T13:12:45.781Z,37.65
2023-08-25T13:15:13.593Z,41.22
2023-08-25T13:17:41.615Z,38.50
2023-08-25T13:20:10.140Z,44.47
2023-08-25T13:22:36.748Z,44.20
2023-08-25T13:25:03.469Z,40.63
2023-08-25T13:27:31.280Z,43.25
2023-08-25T13:29:59.753Z,41.17
2023-08-25T13:32:26.375Z,43.63
2023-08-25T13:34:52.927Z,45.65
2023-08-25T13:37:19.918Z,36.75
2023-08-25T13:39:46.527Z,45.30
2023-08-25T13:42:13.200Z,48.40
2023-08-25T13:44:40.040Z,40.15
2023-08-25T13:47:09.735Z,44.00
2023-08-25T13:49:37.886Z,45.28
2023-08-25T13:52:04.783Z,47.92
2023-08-25T13:54:32.156Z,58.67
2023-08-25T13:56:59.578Z,53.13
2023-08-25T13:59:26.833Z,49.95
2023-08-25T14:01:53.547Z,49.65
2023-08-25T14:04:20.219Z,47.55
2023-08-25T14:06:46.915Z,45.75
2023-08-25T14:09:13.620Z,40.88
2023-08-25T14:11:40.331Z,40.30
2023-08-25T14:14:07.039Z,39.22
2023-08-25T14:16:38.092Z,39.22
2023-08-25T14:19:04.733Z,38.50
2023-08-25T14:21:31.501Z,36.85
2023-08-25T14:24:00.976Z,38.42
2023-08-25T14:26:28.367Z,38.08
2023-08-25T14:28:55.479Z,37.25
2023-08-25T14:31:22.383Z,42.55
2023-08-25T14:33:49.024Z,40.28
2023-08-25T14:36:15.707Z,36.70
2023-08-25T14:38:42.467Z,34.03
2023-08-25T14:41:09.152Z,40.38
2023-08-25T14:43:35.797Z,40.30
2023-08-25T14:46:02.676Z,38.95
2023-08-25T14:48:29.347Z,34.50
2023-08-25T14:51:01.591Z,38.58
2023-08-25T14:53:28.484Z,36.65
2023-08-25T14:55:55.423Z,38.22
2023-08-25T14:58:23.317Z,34.40
2023-08-25T15:00:55.006Z,28.63
2023-08-25T15:03:21.836Z,30.70
2023-08-25T15:05:49.172Z,33.55
2023-08-25T15:08:15.831Z,31.60
2023-08-25T15:10:43.258Z,36.78
2023-08-25T15:13:10.266Z,28.80
2023-08-25T15:15:37.306Z,32.13
2023-08-25T15:18:04.352Z,30.23
2023-08-25T15:20:31.143Z,27.98
2023-08-25T15:22:57.765Z,23.15
2023-08-25T15:25:24.380Z,24.25
2023-08-25T15:27:51.052Z,19.70
2023-08-25T15:30:17.627Z,22.48
2023-08-25T15:32:44.321Z,22.85
2023-08-25T15:35:11.540Z,16.80
2023-08-25T15:37:38.185Z,22.20
2023-08-25T15:40:05.633Z,21.50
2023-08-25T15:42:32.303Z,23.33
2023-08-25T15:44:58.924Z,30.40
2023-08-25T15:47:25.538Z,31.98
2023-08-25T15:49:52.156Z,24.98
2023-08-25T15:52:18.737Z,23.65
2023-08-25T15:54:45.396Z,26.20
2023-08-25T15:57:11.980Z,28.20
2023-08-25T15:59:38.614Z,25.88
2023-08-25T16:02:05.294Z,28.20
2023-08-25T16:04:31.863Z,27.95
2023-08-25T16:06:58.599Z,27.83
2023-08-25T16:09:25.182Z,30.92
2023-08-25T16:11:52.292Z,29.05
2023-08-25T16:14:19.177Z,28.05
2023-08-25T16:16:45.965Z,31.98
2023-08-25T16:19:14.654Z,30.40
2023-08-25T16:21:42.541Z,24.60
2023-08-25T16:24:09.370Z,29.42
2023-08-25T16:26:36.049Z,29.40
2023-08-25T16:29:03.282Z,25.95
2023-08-25T16:31:30.063Z,27.45
2023-08-25T16:33:56.761Z,22.85
2023-08-25T16:36:23.460Z,24.38
2023-08-25T16:38:50.151Z,24.90
2023-08-25T16:41:16.767Z,22.45
2023-08-25T16:43:43.500Z,23.48
2023-08-25T16:46:11.440Z,22.50
2023-08-25T16:48:38.115Z,22.45
2023-08-25T16:51:05.033Z,25.27
2023-08-25T16:53:32.262Z,27.38
2023-08-25T16:56:00.210Z,21.05
2023-08-25T16:58:28.637Z,23.02
2023-08-25T17:00:56.404Z,20.48
2023-08-25T17:03:23.524Z,24.38
2023-08-25T17:05:50.222Z,22.95
2023-08-25T17:08:18.651Z,22.20
2023-08-25T17:10:45.772Z,23.83
2023-08-25T17:13:12.473Z,21.25
2023-08-25T17:15:39.183Z,23.55
2023-08-25T17:18:06.321Z,25.00
2023-08-25T17:20:33.289Z,28.23
2023-08-25T17:22:59.998Z,23.67
2023-08-25T17:25:26.821Z,23.58
2023-08-25T17:27:54.807Z,23.58
2023-08-25T17:30:21.594Z,24.75
2023-08-25T17:32:48.292Z,22.67
2023-08-25T17:35:15.001Z,24.85
2023-08-25T17:37:41.809Z,25.50
2023-08-25T17:40:08.932Z,25.85
2023-08-25T17:42:35.976Z,25.60
2023-08-25T17:45:02.708Z,25.23
2023-08-25T17:47:29.952Z,31.10
2023-08-25T17:49:57.903Z,27.98
2023-08-25T17:52:24.538Z,23.08
2023-08-25T17:54:51.110Z,23.88
2023-08-25T17:57:17.909Z,23.55
2023-08-25T17:59:44.605Z,29.25
2023-08-25T18:02:11.439Z,24.92
2023-08-25T18:04:39.532Z,23.85
2023-08-25T18:07:06.724Z,21.13
2023-08-25T18:09:33.474Z,22.33
2023-08-25T18:12:01.593Z,24.20
2023-08-25T18:14:28.518Z,25.25
2023-08-25T18:16:55.244Z,24.77
2023-08-25T18:19:21.974Z,21.13
2023-08-25T18:21:48.734Z,20.55
2023-08-25T18:24:15.504Z,30.02
2023-08-25T18:26:44.431Z,30.60
2023-08-25T18:29:11.708Z,29.27
2023-08-25T18:31:38.809Z,26.88
2023-08-25T18:34:05.831Z,22.88
2023-08-25T18:36:32.459Z,20.75
2023-08-25T18:38:59.078Z,23.10
2023-08-25T18:41:26.386Z,20.80
2023-08-25T18:43:53.236Z,26.17
2023-08-25T18:46:20.190Z,25.05
2023-08-25T18:48:47.011Z,24.20
2023-08-25T18:51:13.690Z,20.83
2023-08-25T18:53:40.810Z,23.35
2023-08-25T18:56:07.761Z,25.50
2023-08-25T18:58:37.718Z,23.52
2023-08-25T19:01:04.891Z,23.92
2023-08-25T19:03:35.035Z,25.10
2023-08-25T19:06:04.435Z,25.33
2023-08-25T19:08:35.074Z,26.77
2023-08-25T19:11:01.769Z,26.90
2023-08-25T19:13:29.292Z,26.33
2023-08-25T19:16:00.476Z,23.70
2023-08-25T19:18:27.391Z,26.60
2023-08-25T19:21:00.655Z,24.50
2023-08-25T19:25:55.931Z,24.77
2023-08-25T19:28:22.631Z,24.55
2023-08-25T19:30:49.316Z,28.27
2023-08-25T19:33:16.790Z,26.17
2023-08-25T19:35:43.673Z,25.65
2023-08-25T19:38:11.053Z,24.38
2023-08-25T19:40:37.841Z,26.60
2023-08-25T19:43:04.627Z,27.67
2023-08-25T19:45:31.316Z,27.95
2023-08-25T19:47:58.037Z,25.80
2023-08-25T19:50:24.653Z,22.58
2023-08-25T19:52:51.240Z,24.65
2023-08-25T19:55:17.931Z,23.77
2023-08-25T19:57:44.526Z,21.88
2023-08-25T20:00:13.093Z,21.02
2023-08-25T20:02:39.966Z,24.48
2023-08-25T20:05:07.280Z,22.92
2023-08-25T20:07:34.076Z,23.30
2023-08-25T20:10:00.702Z,18.63
2023-08-25T20:12:27.273Z,19.65
2023-08-25T20:14:53.877Z,17.70
2023-08-25T20:17:20.496Z,20.20
2023-08-25T20:19:47.433Z,17.25
2023-08-25T20:22:14.047Z,18.48
2023-08-25T20:24:40.631Z,19.77
2023-08-25T20:27:08.254Z,17.35
2023-08-25T20:29:34.903Z,20.00
2023-08-25T20:32:01.500Z,20.08
2023-08-25T20:34:28.155Z,16.63
2023-08-25T20:36:54.728Z,18.13
2023-08-25T20:39:21.299Z,17.90
2023-08-25T20:41:47.944Z,18.23
2023-08-25T20:44:14.654Z,15.32
2023-08-25T20:46:41.720Z,22.58
2023-08-25T20:49:08.434Z,18.90
2023-08-25T20:51:35.108Z,18.10
2023-08-25T20:54:01.753Z,19.83
2023-08-25T20:56:28.497Z,15.35
2023-08-25T20:58:55.117Z,19.40
2023-08-25T21:01:21.812Z,19.92
2023-08-25T21:03:48.594Z,17.00
2023-08-25T21:06:15.421Z,15.02
2023-08-25T21:08:42.157Z,19.08
2023-08-25T21:11:08.752Z,17.65
2023-08-25T21:13:35.458Z,18.70
2023-08-25T21:16:03.121Z,14.82
2023-08-25T21:18:29.842Z,19.08
2023-08-25T21:20:59.462Z,19.45
2023-08-25T21:23:26.023Z,21.35
2023-08-25T21:25:59.444Z,17.80
2023-08-25T21:28:27.872Z,18.60
2023-08-25T21:30:56.782Z,19.30
2023-08-25T21:33:25.617Z,24.85
2023-08-25T21:35:52.861Z,20.35
2023-08-25T21:38:19.787Z,20.05
2023-08-25T21:40:46.465Z,19.13
2023-08-25T21:43:14.100Z,19.75
2023-08-25T21:45:43.022Z,23.02
2023-08-25T21:48:09.780Z,22.10
2023-08-25T21:50:38.637Z,24.17
2023-08-25T21:53:05.196Z,23.60
2023-08-25T21:55:31.978Z,25.58
2023-08-25T21:57:58.647Z,23.52
2023-08-25T22:00:25.213Z,21.80
2023-08-25T22:02:51.930Z,27.02
2023-08-25T22:05:19.583Z,27.33
2023-08-25T22:07:46.162Z,21.60
2023-08-25T22:10:13.021Z,21.95
2023-08-25T22:12:39.699Z,24.05
2023-08-25T22:15:07.096Z,23.90
2023-08-25T22:17:33.798Z,24.10
2023-08-25T22:20:07.075Z,21.95
2023-08-25T22:22:35.033Z,22.98
2023-08-25T22:25:01.870Z,21.75
2023-08-25T22:27:28.505Z,28.05
2023-08-25T22:29:55.257Z,21.73
2023-08-25T22:34:51.614Z,25.70
2023-08-25T22:37:18.230Z,26.55
2023-08-25T22:39:44.798Z,24.15
2023-08-25T22:42:11.355Z,25.75
2023-08-25T22:44:37.989Z,30.75
2023-08-25T22:47:04.847Z,28.67
2023-08-25T22:49:31.473Z,29.30
2023-08-25T22:51:58.125Z,28.92
2023-08-25T22:54:24.733Z,25.45
2023-08-25T22:56:51.312Z,16.95
2023-08-25T22:59:18.036Z,14.88
2023-08-25T23:01:46.908Z,18.67
2023-08-25T23:04:13.652Z,14.15
2023-08-25T23:06:40.407Z,15.73
2023-08-25T23:09:06.972Z,11.50
2023-08-25T23:11:33.601Z,12.05
2023-08-25T23:14:00.852Z,13.40
2023-08-25T23:16:27.977Z,10.70
2023-08-25T23:18:54.645Z,14.50
2023-08-25T23:21:21.428Z,11.75
2023-08-25T23:23:48.189Z,13.82
2023-08-25T23:26:14.839Z,10.80
2023-08-25T23:28:41.817Z,14.05
2023-08-25T23:31:11.364Z,16.45
2023-08-25T23:33:38.275Z,10.70
2023-08-25T23:36:05.052Z,10.80
2023-08-25T23:38:31.797Z,8.20
2023-08-25T23:40:59.444Z,10.43
2023-08-25T23:43:26.106Z,9.88
2023-08-25T23:45:57.496Z,9.63
2023-08-25T23:48:24.738Z,13.27
2023-08-25T23:50:51.396Z,4.88
2023-08-25T23:53:18.055Z,10.95
2023-08-25T23:55:44.936Z,7.90
2023-08-25T23:58:11.615Z,8.63
